sensor_id;sensor_type;location;lat;lon;timestamp;P1;durP1;ratioP1;P2;durP2;ratioP2
58553;SDS011;48119;53.218;6.576;2023-04-03T00:02:17;2.45;;;0.95;;
58553;SDS011;48119;53.218;6.576;2023-04-03T00:04:43;1.98;;;0.88;;
58553;SDS011;48119;53.218;6.576;2023-04-03T00:07:09;2.58;;;1.52;;
58553;SDS011;48119;53.218;6.576;2023-04-03T00:09:35;3.15;;;1.35;;
58553;SDS011;48119;53.218;6.576;2023-04-03T00:12:01;4.75;;;1.80;;
58553;SDS011;48119;53.218;6.576;2023-04-03T00:14:27;2.72;;;1.10;;
58553;SDS011;48119;53.218;6.576;2023-04-03T00:16:54;2.55;;;1.50;;
58553;SDS011;48119;53.218;6.576;2023-04-03T00:19:20;3.65;;;1.15;;
58553;SDS011;48119;53.218;6.576;2023-04-03T00:21:46;3.38;;;1.42;;
58553;SDS011;48119;53.218;6.576;2023-04-03T00:24:15;4.03;;;1.83;;
58553;SDS011;48119;53.218;6.576;2023-04-03T00:26:41;3.50;;;1.63;;
58553;SDS011;48119;53.218;6.576;2023-04-03T00:29:07;5.45;;;1.40;;
58553;SDS011;48119;53.218;6.576;2023-04-03T00:31:32;3.80;;;1.38;;
58553;SDS011;48119;53.218;6.576;2023-04-03T00:33:58;4.57;;;1.15;;
58553;SDS011;48119;53.218;6.576;2023-04-03T00:36:24;1.85;;;0.95;;
58553;SDS011;48119;53.218;6.576;2023-04-03T00:38:50;1.10;;;0.88;;
58553;SDS011;48119;53.218;6.576;2023-04-03T00:41:16;4.75;;;0.90;;
58553;SDS011;48119;53.218;6.576;2023-04-03T00:43:42;3.63;;;1.10;;
58553;SDS011;48119;53.218;6.576;2023-04-03T00:46:08;2.33;;;0.98;;
58553;SDS011;48119;53.218;6.576;2023-04-03T00:48:44;2.60;;;1.10;;
58553;SDS011;48119;53.218;6.576;2023-04-03T00:51:15;4.00;;;1.00;;
58553;SDS011;48119;53.218;6.576;2023-04-03T00:53:59;2.97;;;0.75;;
58553;SDS011;48119;53.218;6.576;2023-04-03T00:56:29;2.83;;;0.98;;
58553;SDS011;48119;53.218;6.576;2023-04-03T00:58:58;2.72;;;0.85;;
58553;SDS011;48119;53.218;6.576;2023-04-03T01:01:47;6.43;;;1.40;;
58553;SDS011;48119;53.218;6.576;2023-04-03T01:04:33;3.22;;;1.00;;
58553;SDS011;48119;53.218;6.576;2023-04-03T01:07:04;5.22;;;1.02;;
58553;SDS011;48119;53.218;6.576;2023-04-03T01:09:35;1.33;;;0.93;;
58553;SDS011;48119;53.218;6.576;2023-04-03T01:12:20;2.15;;;1.00;;
58553;SDS011;48119;53.218;6.576;2023-04-03T01:14:48;2.13;;;0.80;;
58553;SDS011;48119;53.218;6.576;2023-04-03T01:17:50;2.33;;;1.00;;
58553;SDS011;48119;53.218;6.576;2023-04-03T01:25:42;6.22;;;2.05;;
58553;SDS011;48119;53.218;6.576;2023-04-03T01:28:36;4.22;;;1.23;;
58553;SDS011;48119;53.218;6.576;2023-04-03T01:33:52;3.88;;;1.38;;
58553;SDS011;48119;53.218;6.576;2023-04-03T01:36:20;3.63;;;1.40;;
58553;SDS011;48119;53.218;6.576;2023-04-03T01:38:48;3.97;;;1.08;;
58553;SDS011;48119;53.218;6.576;2023-04-03T01:41:14;5.35;;;0.98;;
58553;SDS011;48119;53.218;6.576;2023-04-03T01:43:41;4.25;;;1.50;;
58553;SDS011;48119;53.218;6.576;2023-04-03T01:46:07;3.28;;;1.40;;
58553;SDS011;48119;53.218;6.576;2023-04-03T01:48:33;3.17;;;1.33;;
58553;SDS011;48119;53.218;6.576;2023-04-03T01:50:59;3.00;;;1.45;;
58553;SDS011;48119;53.218;6.576;2023-04-03T01:53:25;3.90;;;1.45;;
58553;SDS011;48119;53.218;6.576;2023-04-03T01:55:50;2.90;;;1.30;;
58553;SDS011;48119;53.218;6.576;2023-04-03T01:58:16;3.47;;;1.20;;
58553;SDS011;48119;53.218;6.576;2023-04-03T02:00:42;4.15;;;1.45;;
58553;SDS011;48119;53.218;6.576;2023-04-03T02:03:08;3.33;;;1.20;;
58553;SDS011;48119;53.218;6.576;2023-04-03T02:05:34;4.07;;;1.40;;
58553;SDS011;48119;53.218;6.576;2023-04-03T02:08:00;7.70;;;1.67;;
58553;SDS011;48119;53.218;6.576;2023-04-03T02:10:26;6.97;;;1.50;;
58553;SDS011;48119;53.218;6.576;2023-04-03T02:12:52;3.08;;;1.20;;
58553;SDS011;48119;53.218;6.576;2023-04-03T02:15:23;2.63;;;1.20;;
58553;SDS011;48119;53.218;6.576;2023-04-03T02:17:49;4.88;;;1.20;;
58553;SDS011;48119;53.218;6.576;2023-04-03T02:20:15;3.80;;;1.27;;
58553;SDS011;48119;53.218;6.576;2023-04-03T02:22:40;2.03;;;1.02;;
58553;SDS011;48119;53.218;6.576;2023-04-03T02:25:06;7.15;;;1.67;;
58553;SDS011;48119;53.218;6.576;2023-04-03T02:27:32;3.00;;;1.30;;
58553;SDS011;48119;53.218;6.576;2023-04-03T02:29:58;6.43;;;1.55;;
58553;SDS011;48119;53.218;6.576;2023-04-03T02:32:30;6.88;;;1.38;;
58553;SDS011;48119;53.218;6.576;2023-04-03T02:34:56;5.45;;;1.40;;
58553;SDS011;48119;53.218;6.576;2023-04-03T02:37:22;3.67;;;1.63;;
58553;SDS011;48119;53.218;6.576;2023-04-03T02:39:48;6.25;;;1.73;;
58553;SDS011;48119;53.218;6.576;2023-04-03T02:42:14;5.20;;;1.60;;
58553;SDS011;48119;53.218;6.576;2023-04-03T02:44:43;3.70;;;1.20;;
58553;SDS011;48119;53.218;6.576;2023-04-03T02:47:09;4.53;;;1.30;;
58553;SDS011;48119;53.218;6.576;2023-04-03T02:49:37;4.00;;;1.45;;
58553;SDS011;48119;53.218;6.576;2023-04-03T02:52:03;5.70;;;1.52;;
58553;SDS011;48119;53.218;6.576;2023-04-03T02:54:33;3.80;;;1.45;;
58553;SDS011;48119;53.218;6.576;2023-04-03T02:57:00;4.68;;;1.50;;
58553;SDS011;48119;53.218;6.576;2023-04-03T02:59:25;4.70;;;1.90;;
58553;SDS011;48119;53.218;6.576;2023-04-03T03:01:51;4.90;;;1.83;;
58553;SDS011;48119;53.218;6.576;2023-04-03T03:04:17;4.40;;;1.60;;
58553;SDS011;48119;53.218;6.576;2023-04-03T03:06:43;2.95;;;1.60;;
58553;SDS011;48119;53.218;6.576;2023-04-03T03:09:09;7.30;;;1.58;;
58553;SDS011;48119;53.218;6.576;2023-04-03T03:11:35;3.67;;;1.60;;
58553;SDS011;48119;53.218;6.576;2023-04-03T03:14:01;4.75;;;1.55;;
58553;SDS011;48119;53.218;6.576;2023-04-03T03:16:26;3.95;;;1.20;;
58553;SDS011;48119;53.218;6.576;2023-04-03T03:18:52;3.65;;;1.48;;
58553;SDS011;48119;53.218;6.576;2023-04-03T03:21:18;3.70;;;1.55;;
58553;SDS011;48119;53.218;6.576;2023-04-03T03:23:44;5.75;;;1.42;;
58553;SDS011;48119;53.218;6.576;2023-04-03T03:26:10;3.00;;;1.55;;
58553;SDS011;48119;53.218;6.576;2023-04-03T03:28:36;6.18;;;2.05;;
58553;SDS011;48119;53.218;6.576;2023-04-03T03:31:03;10.23;;;2.53;;
58553;SDS011;48119;53.218;6.576;2023-04-03T03:33:35;3.42;;;1.48;;
58553;SDS011;48119;53.218;6.576;2023-04-03T03:36:01;4.63;;;1.27;;
58553;SDS011;48119;53.218;6.576;2023-04-03T03:38:26;9.57;;;1.70;;
58553;SDS011;48119;53.218;6.576;2023-04-03T03:40:52;9.05;;;2.38;;
58553;SDS011;48119;53.218;6.576;2023-04-03T03:43:18;5.55;;;1.60;;
58553;SDS011;48119;53.218;6.576;2023-04-03T03:45:46;3.90;;;1.45;;
58553;SDS011;48119;53.218;6.576;2023-04-03T03:48:16;4.45;;;2.20;;
58553;SDS011;48119;53.218;6.576;2023-04-03T03:50:42;3.38;;;1.23;;
58553;SDS011;48119;53.218;6.576;2023-04-03T03:53:08;10.63;;;2.55;;
58553;SDS011;48119;53.218;6.576;2023-04-03T03:55:33;5.30;;;1.63;;
58553;SDS011;48119;53.218;6.576;2023-04-03T03:57:59;4.28;;;1.52;;
58553;SDS011;48119;53.218;6.576;2023-04-03T04:00:28;7.55;;;2.15;;
58553;SDS011;48119;53.218;6.576;2023-04-03T04:02:55;10.57;;;2.00;;
58553;SDS011;48119;53.218;6.576;2023-04-03T04:05:24;4.55;;;1.30;;
58553;SDS011;48119;53.218;6.576;2023-04-03T04:07:50;7.13;;;2.15;;
58553;SDS011;48119;53.218;6.576;2023-04-03T04:10:16;7.25;;;2.58;;
58553;SDS011;48119;53.218;6.576;2023-04-03T04:12:42;6.28;;;1.55;;
58553;SDS011;48119;53.218;6.576;2023-04-03T04:15:08;6.35;;;1.95;;
58553;SDS011;48119;53.218;6.576;2023-04-03T04:17:34;7.38;;;2.83;;
58553;SDS011;48119;53.218;6.576;2023-04-03T04:20:00;5.63;;;2.03;;
58553;SDS011;48119;53.218;6.576;2023-04-03T04:22:28;4.65;;;1.70;;
58553;SDS011;48119;53.218;6.576;2023-04-03T04:24:53;7.18;;;2.10;;
58553;SDS011;48119;53.218;6.576;2023-04-03T04:27:19;5.00;;;1.92;;
58553;SDS011;48119;53.218;6.576;2023-04-03T04:29:45;4.47;;;1.60;;
58553;SDS011;48119;53.218;6.576;2023-04-03T04:32:11;5.18;;;2.08;;
58553;SDS011;48119;53.218;6.576;2023-04-03T04:34:36;6.05;;;1.90;;
58553;SDS011;48119;53.218;6.576;2023-04-03T04:37:02;4.88;;;1.70;;
58553;SDS011;48119;53.218;6.576;2023-04-03T04:39:28;5.30;;;2.35;;
58553;SDS011;48119;53.218;6.576;2023-04-03T04:41:54;7.13;;;1.80;;
58553;SDS011;48119;53.218;6.576;2023-04-03T04:44:20;5.22;;;2.25;;
58553;SDS011;48119;53.218;6.576;2023-04-03T04:46:46;7.82;;;2.20;;
58553;SDS011;48119;53.218;6.576;2023-04-03T04:49:12;5.43;;;1.85;;
58553;SDS011;48119;53.218;6.576;2023-04-03T04:51:37;5.55;;;2.25;;
58553;SDS011;48119;53.218;6.576;2023-04-03T04:54:06;4.35;;;2.10;;
58553;SDS011;48119;53.218;6.576;2023-04-03T04:56:32;5.00;;;1.92;;
58553;SDS011;48119;53.218;6.576;2023-04-03T04:58:57;9.23;;;2.88;;
58553;SDS011;48119;53.218;6.576;2023-04-03T05:01:23;8.30;;;2.47;;
58553;SDS011;48119;53.218;6.576;2023-04-03T05:03:49;8.65;;;2.58;;
58553;SDS011;48119;53.218;6.576;2023-04-03T05:06:15;12.60;;;2.60;;
58553;SDS011;48119;53.218;6.576;2023-04-03T05:08:41;8.00;;;2.45;;
58553;SDS011;48119;53.218;6.576;2023-04-03T05:11:07;8.48;;;2.65;;
58553;SDS011;48119;53.218;6.576;2023-04-03T05:13:32;7.80;;;2.65;;
58553;SDS011;48119;53.218;6.576;2023-04-03T05:15:58;7.32;;;2.45;;
58553;SDS011;48119;53.218;6.576;2023-04-03T05:18:24;4.75;;;1.88;;
58553;SDS011;48119;53.218;6.576;2023-04-03T05:20:50;5.35;;;2.45;;
58553;SDS011;48119;53.218;6.576;2023-04-03T05:23:16;8.13;;;2.33;;
58553;SDS011;48119;53.218;6.576;2023-04-03T05:25:42;5.75;;;2.67;;
58553;SDS011;48119;53.218;6.576;2023-04-03T05:28:10;5.75;;;2.25;;
58553;SDS011;48119;53.218;6.576;2023-04-03T05:30:36;6.18;;;2.63;;
58553;SDS011;48119;53.218;6.576;2023-04-03T05:33:02;5.18;;;2.03;;
58553;SDS011;48119;53.218;6.576;2023-04-03T05:35:28;5.88;;;2.47;;
58553;SDS011;48119;53.218;6.576;2023-04-03T05:37:54;12.23;;;2.50;;
58553;SDS011;48119;53.218;6.576;2023-04-03T05:40:20;5.75;;;2.13;;
58553;SDS011;48119;53.218;6.576;2023-04-03T05:42:46;5.97;;;2.08;;
58553;SDS011;48119;53.218;6.576;2023-04-03T05:45:12;8.20;;;2.33;;
58553;SDS011;48119;53.218;6.576;2023-04-03T05:47:38;4.95;;;2.28;;
58553;SDS011;48119;53.218;6.576;2023-04-03T05:50:04;8.32;;;3.20;;
58553;SDS011;48119;53.218;6.576;2023-04-03T05:52:35;4.70;;;2.60;;
58553;SDS011;48119;53.218;6.576;2023-04-03T05:55:03;3.13;;;1.90;;
58553;SDS011;48119;53.218;6.576;2023-04-03T05:57:29;8.40;;;2.42;;
58553;SDS011;48119;53.218;6.576;2023-04-03T05:59:55;4.78;;;2.15;;
58553;SDS011;48119;53.218;6.576;2023-04-03T06:02:21;5.15;;;2.35;;
58553;SDS011;48119;53.218;6.576;2023-04-03T06:04:54;4.10;;;1.85;;
58553;SDS011;48119;53.218;6.576;2023-04-03T06:07:21;5.45;;;2.25;;
58553;SDS011;48119;53.218;6.576;2023-04-03T06:09:48;8.02;;;2.88;;
58553;SDS011;48119;53.218;6.576;2023-04-03T06:12:16;15.30;;;2.80;;
58553;SDS011;48119;53.218;6.576;2023-04-03T06:14:42;6.63;;;2.30;;
58553;SDS011;48119;53.218;6.576;2023-04-03T06:17:08;4.63;;;1.90;;
58553;SDS011;48119;53.218;6.576;2023-04-03T06:19:40;7.18;;;2.33;;
58553;SDS011;48119;53.218;6.576;2023-04-03T06:22:06;5.75;;;2.28;;
58553;SDS011;48119;53.218;6.576;2023-04-03T06:24:32;6.15;;;2.50;;
58553;SDS011;48119;53.218;6.576;2023-04-03T06:26:59;6.63;;;2.63;;
58553;SDS011;48119;53.218;6.576;2023-04-03T06:29:25;7.85;;;2.45;;
58553;SDS011;48119;53.218;6.576;2023-04-03T06:31:51;7.70;;;1.95;;
58553;SDS011;48119;53.218;6.576;2023-04-03T06:34:17;4.72;;;1.92;;
58553;SDS011;48119;53.218;6.576;2023-04-03T06:36:43;6.72;;;2.47;;
58553;SDS011;48119;53.218;6.576;2023-04-03T06:39:13;9.93;;;2.63;;
58553;SDS011;48119;53.218;6.576;2023-04-03T06:41:41;6.03;;;2.08;;
58553;SDS011;48119;53.218;6.576;2023-04-03T06:44:07;7.22;;;2.28;;
58553;SDS011;48119;53.218;6.576;2023-04-03T06:46:36;5.00;;;2.13;;
58553;SDS011;48119;53.218;6.576;2023-04-03T06:49:03;4.70;;;2.30;;
58553;SDS011;48119;53.218;6.576;2023-04-03T06:51:29;5.07;;;2.60;;
58553;SDS011;48119;53.218;6.576;2023-04-03T06:53:59;4.75;;;2.53;;
58553;SDS011;48119;53.218;6.576;2023-04-03T06:56:25;8.82;;;2.60;;
58553;SDS011;48119;53.218;6.576;2023-04-03T06:58:52;9.05;;;2.88;;
58553;SDS011;48119;53.218;6.576;2023-04-03T07:01:41;9.57;;;3.80;;
58553;SDS011;48119;53.218;6.576;2023-04-03T07:04:08;8.02;;;2.65;;
58553;SDS011;48119;53.218;6.576;2023-04-03T07:06:34;7.03;;;2.35;;
58553;SDS011;48119;53.218;6.576;2023-04-03T07:09:01;6.72;;;2.60;;
58553;SDS011;48119;53.218;6.576;2023-04-03T07:11:27;6.00;;;2.03;;
58553;SDS011;48119;53.218;6.576;2023-04-03T07:13:53;5.72;;;2.30;;
58553;SDS011;48119;53.218;6.576;2023-04-03T07:16:19;5.97;;;2.58;;
58553;SDS011;48119;53.218;6.576;2023-04-03T07:18:45;8.38;;;2.78;;
58553;SDS011;48119;53.218;6.576;2023-04-03T07:21:11;6.03;;;2.28;;
58553;SDS011;48119;53.218;6.576;2023-04-03T07:23:38;6.68;;;2.65;;
58553;SDS011;48119;53.218;6.576;2023-04-03T07:26:04;6.07;;;2.60;;
58553;SDS011;48119;53.218;6.576;2023-04-03T07:28:31;6.13;;;2.40;;
58553;SDS011;48119;53.218;6.576;2023-04-03T07:31:02;8.25;;;2.88;;
58553;SDS011;48119;53.218;6.576;2023-04-03T07:33:30;7.35;;;2.97;;
58553;SDS011;48119;53.218;6.576;2023-04-03T07:35:57;5.22;;;2.63;;
58553;SDS011;48119;53.218;6.576;2023-04-03T07:38:23;7.85;;;2.85;;
58553;SDS011;48119;53.218;6.576;2023-04-03T07:40:50;7.38;;;2.92;;
58553;SDS011;48119;53.218;6.576;2023-04-03T07:43:18;7.22;;;2.50;;
58553;SDS011;48119;53.218;6.576;2023-04-03T07:45:45;4.53;;;2.60;;
58553;SDS011;48119;53.218;6.576;2023-04-03T07:48:15;8.35;;;2.53;;
58553;SDS011;48119;53.218;6.576;2023-04-03T07:50:43;7.70;;;2.90;;
58553;SDS011;48119;53.218;6.576;2023-04-03T07:53:09;7.15;;;2.50;;
58553;SDS011;48119;53.218;6.576;2023-04-03T07:55:35;3.72;;;2.17;;
58553;SDS011;48119;53.218;6.576;2023-04-03T07:58:08;5.30;;;2.38;;
58553;SDS011;48119;53.218;6.576;2023-04-03T08:00:39;6.20;;;2.47;;
58553;SDS011;48119;53.218;6.576;2023-04-03T08:03:06;3.45;;;2.30;;
58553;SDS011;48119;53.218;6.576;2023-04-03T08:05:36;6.28;;;2.08;;
58553;SDS011;48119;53.218;6.576;2023-04-03T08:08:03;7.75;;;3.28;;
58553;SDS011;48119;53.218;6.576;2023-04-03T08:10:30;5.70;;;2.00;;
58553;SDS011;48119;53.218;6.576;2023-04-03T08:12:59;5.38;;;2.33;;
58553;SDS011;48119;53.218;6.576;2023-04-03T08:15:25;5.88;;;2.40;;
58553;SDS011;48119;53.218;6.576;2023-04-03T08:17:51;7.18;;;2.10;;
58553;SDS011;48119;53.218;6.576;2023-04-03T08:20:17;6.00;;;1.80;;
58553;SDS011;48119;53.218;6.576;2023-04-03T08:22:43;5.65;;;1.80;;
58553;SDS011;48119;53.218;6.576;2023-04-03T08:25:09;8.40;;;2.47;;
58553;SDS011;48119;53.218;6.576;2023-04-03T08:27:35;6.07;;;2.40;;
58553;SDS011;48119;53.218;6.576;2023-04-03T08:30:02;4.32;;;2.03;;
58553;SDS011;48119;53.218;6.576;2023-04-03T08:32:29;6.10;;;2.00;;
58553;SDS011;48119;53.218;6.576;2023-04-03T08:34:55;4.88;;;2.70;;
58553;SDS011;48119;53.218;6.576;2023-04-03T08:37:21;4.90;;;1.90;;
58553;SDS011;48119;53.218;6.576;2023-04-03T08:39:47;5.10;;;2.30;;
58553;SDS011;48119;53.218;6.576;2023-04-03T08:45:17;5.22;;;2.25;;
58553;SDS011;48119;53.218;6.576;2023-04-03T08:50:46;4.15;;;2.03;;
58553;SDS011;48119;53.218;6.576;2023-04-03T08:53:17;5.90;;;1.77;;
58553;SDS011;48119;53.218;6.576;2023-04-03T08:55:47;2.80;;;1.05;;
58553;SDS011;48119;53.218;6.576;2023-04-03T08:58:22;2.33;;;1.23;;
58553;SDS011;48119;53.218;6.576;2023-04-03T09:03:52;4.13;;;1.38;;
58553;SDS011;48119;53.218;6.576;2023-04-03T09:06:20;3.40;;;1.08;;
58553;SDS011;48119;53.218;6.576;2023-04-03T09:15:09;3.97;;;1.30;;
58553;SDS011;48119;53.218;6.576;2023-04-03T09:20:25;3.85;;;1.58;;
58553;SDS011;48119;53.218;6.576;2023-04-03T09:23:38;5.10;;;1.88;;
58553;SDS011;48119;53.218;6.576;2023-04-03T09:26:08;2.58;;;1.48;;
58553;SDS011;48119;53.218;6.576;2023-04-03T09:28:46;3.17;;;1.25;;
58553;SDS011;48119;53.218;6.576;2023-04-03T09:31:20;4.60;;;2.17;;
58553;SDS011;48119;53.218;6.576;2023-04-03T09:33:53;3.35;;;1.98;;
58553;SDS011;48119;53.218;6.576;2023-04-03T09:36:38;3.95;;;1.15;;
58553;SDS011;48119;53.218;6.576;2023-04-03T09:39:07;4.60;;;1.92;;
58553;SDS011;48119;53.218;6.576;2023-04-03T09:41:37;4.65;;;1.50;;
58553;SDS011;48119;53.218;6.576;2023-04-03T09:44:04;5.05;;;1.50;;
58553;SDS011;48119;53.218;6.576;2023-04-03T09:46:47;6.18;;;1.50;;
58553;SDS011;48119;53.218;6.576;2023-04-03T09:49:12;7.32;;;1.48;;
58553;SDS011;48119;53.218;6.576;2023-04-03T09:51:38;2.15;;;1.20;;
58553;SDS011;48119;53.218;6.576;2023-04-03T09:57:00;3.00;;;1.63;;
58553;SDS011;48119;53.218;6.576;2023-04-03T09:59:47;3.42;;;1.00;;
58553;SDS011;48119;53.218;6.576;2023-04-03T10:02:34;3.50;;;1.50;;
58553;SDS011;48119;53.218;6.576;2023-04-03T10:05:04;7.00;;;1.65;;
58553;SDS011;48119;53.218;6.576;2023-04-03T10:08:07;2.87;;;1.07;;
58553;SDS011;48119;53.218;6.576;2023-04-03T10:10:33;3.35;;;1.08;;
58553;SDS011;48119;53.218;6.576;2023-04-03T10:13:03;2.50;;;1.30;;
58553;SDS011;48119;53.218;6.576;2023-04-03T10:15:38;3.22;;;0.93;;
58553;SDS011;48119;53.218;6.576;2023-04-03T10:18:14;4.45;;;1.42;;
58553;SDS011;48119;53.218;6.576;2023-04-03T10:23:32;2.58;;;1.27;;
58553;SDS011;48119;53.218;6.576;2023-04-03T10:35:01;2.25;;;0.90;;
58553;SDS011;48119;53.218;6.576;2023-04-03T10:39:50;5.35;;;1.40;;
58553;SDS011;48119;53.218;6.576;2023-04-03T10:47:53;5.18;;;1.52;;
58553;SDS011;48119;53.218;6.576;2023-04-03T10:56:10;5.50;;;1.17;;
58553;SDS011;48119;53.218;6.576;2023-04-03T11:01:44;1.67;;;1.15;;
58553;SDS011;48119;53.218;6.576;2023-04-03T11:04:14;2.45;;;1.20;;
58553;SDS011;48119;53.218;6.576;2023-04-03T11:09:48;1.90;;;0.73;;
58553;SDS011;48119;53.218;6.576;2023-04-03T11:12:18;2.95;;;0.88;;
58553;SDS011;48119;53.218;6.576;2023-04-03T11:14:47;2.90;;;0.70;;
58553;SDS011;48119;53.218;6.576;2023-04-03T11:17:19;3.78;;;0.85;;
58553;SDS011;48119;53.218;6.576;2023-04-03T11:20:17;2.20;;;0.88;;
58553;SDS011;48119;53.218;6.576;2023-04-03T11:25:49;2.72;;;0.90;;
58553;SDS011;48119;53.218;6.576;2023-04-03T11:28:19;2.85;;;1.50;;
58553;SDS011;48119;53.218;6.576;2023-04-03T11:35:47;3.95;;;1.63;;
58553;SDS011;48119;53.218;6.576;2023-04-03T11:38:19;4.13;;;1.80;;
58553;SDS011;48119;53.218;6.576;2023-04-03T11:40:51;6.18;;;1.73;;
58553;SDS011;48119;53.218;6.576;2023-04-03T11:43:21;3.35;;;1.27;;
58553;SDS011;48119;53.218;6.576;2023-04-03T11:46:09;2.90;;;1.00;;
58553;SDS011;48119;53.218;6.576;2023-04-03T11:51:02;2.38;;;1.10;;
58553;SDS011;48119;53.218;6.576;2023-04-03T11:53:53;2.35;;;1.30;;
58553;SDS011;48119;53.218;6.576;2023-04-03T12:01:49;3.50;;;0.98;;
58553;SDS011;48119;53.218;6.576;2023-04-03T12:04:16;4.78;;;1.23;;
58553;SDS011;48119;53.218;6.576;2023-04-03T12:09:24;2.72;;;1.10;;
58553;SDS011;48119;53.218;6.576;2023-04-03T12:14:51;3.88;;;1.60;;
58553;SDS011;48119;53.218;6.576;2023-04-03T12:17:22;2.55;;;1.40;;
58553;SDS011;48119;53.218;6.576;2023-04-03T12:19:52;3.10;;;1.02;;
58553;SDS011;48119;53.218;6.576;2023-04-03T12:22:18;3.90;;;1.05;;
58553;SDS011;48119;53.218;6.576;2023-04-03T12:24:47;5.45;;;1.30;;
58553;SDS011;48119;53.218;6.576;2023-04-03T12:41:17;3.58;;;1.08;;
58553;SDS011;48119;53.218;6.576;2023-04-03T12:46:51;3.08;;;1.38;;
58553;SDS011;48119;53.218;6.576;2023-04-03T12:49:32;2.67;;;1.40;;
58553;SDS011;48119;53.218;6.576;2023-04-03T12:52:40;2.65;;;0.95;;
58553;SDS011;48119;53.218;6.576;2023-04-03T12:55:14;1.98;;;0.70;;
58553;SDS011;48119;53.218;6.576;2023-04-03T12:57:45;3.47;;;1.00;;
58553;SDS011;48119;53.218;6.576;2023-04-03T13:00:18;12.05;;;1.27;;
58553;SDS011;48119;53.218;6.576;2023-04-03T13:02:55;3.08;;;1.17;;
58553;SDS011;48119;53.218;6.576;2023-04-03T13:05:22;1.95;;;0.70;;
58553;SDS011;48119;53.218;6.576;2023-04-03T13:07:49;3.88;;;0.85;;
58553;SDS011;48119;53.218;6.576;2023-04-03T13:10:20;5.28;;;0.90;;
58553;SDS011;48119;53.218;6.576;2023-04-03T13:15:29;3.08;;;1.30;;
58553;SDS011;48119;53.218;6.576;2023-04-03T13:18:05;4.47;;;0.90;;
58553;SDS011;48119;53.218;6.576;2023-04-03T13:20:45;5.43;;;1.65;;
58553;SDS011;48119;53.218;6.576;2023-04-03T13:23:15;6.07;;;1.20;;
58553;SDS011;48119;53.218;6.576;2023-04-03T13:25:45;2.17;;;0.70;;
58553;SDS011;48119;53.218;6.576;2023-04-03T13:28:14;2.58;;;0.77;;
58553;SDS011;48119;53.218;6.576;2023-04-03T13:33:43;1.58;;;0.90;;
58553;SDS011;48119;53.218;6.576;2023-04-03T13:36:22;2.05;;;0.93;;
58553;SDS011;48119;53.218;6.576;2023-04-03T13:38:59;8.02;;;1.45;;
58553;SDS011;48119;53.218;6.576;2023-04-03T13:41:35;3.22;;;0.90;;
58553;SDS011;48119;53.218;6.576;2023-04-03T13:46:51;1.42;;;0.70;;
58553;SDS011;48119;53.218;6.576;2023-04-03T13:52:17;2.83;;;1.13;;
58553;SDS011;48119;53.218;6.576;2023-04-03T13:54:51;3.42;;;1.25;;
58553;SDS011;48119;53.218;6.576;2023-04-03T13:57:20;2.30;;;1.00;;
58553;SDS011;48119;53.218;6.576;2023-04-03T13:59:46;3.45;;;1.17;;
58553;SDS011;48119;53.218;6.576;2023-04-03T14:07:09;2.30;;;1.10;;
58553;SDS011;48119;53.218;6.576;2023-04-03T14:09:36;3.45;;;1.15;;
58553;SDS011;48119;53.218;6.576;2023-04-03T14:12:05;3.45;;;1.30;;
58553;SDS011;48119;53.218;6.576;2023-04-03T14:14:34;3.13;;;0.90;;
58553;SDS011;48119;53.218;6.576;2023-04-03T14:17:03;6.40;;;1.45;;
58553;SDS011;48119;53.218;6.576;2023-04-03T14:19:37;2.42;;;0.80;;
58553;SDS011;48119;53.218;6.576;2023-04-03T14:22:17;3.63;;;1.20;;
58553;SDS011;48119;53.218;6.576;2023-04-03T14:24:46;4.75;;;1.27;;
58553;SDS011;48119;53.218;6.576;2023-04-03T14:27:17;2.50;;;1.17;;
58553;SDS011;48119;53.218;6.576;2023-04-03T14:29:51;2.97;;;0.90;;
58553;SDS011;48119;53.218;6.576;2023-04-03T14:32:18;3.92;;;1.40;;
58553;SDS011;48119;53.218;6.576;2023-04-03T14:34:46;2.13;;;0.90;;
58553;SDS011;48119;53.218;6.576;2023-04-03T14:37:14;2.33;;;1.15;;
58553;SDS011;48119;53.218;6.576;2023-04-03T14:39:42;5.15;;;1.63;;
58553;SDS011;48119;53.218;6.576;2023-04-03T14:42:28;5.35;;;2.22;;
58553;SDS011;48119;53.218;6.576;2023-04-03T14:44:56;4.05;;;1.85;;
58553;SDS011;48119;53.218;6.576;2023-04-03T14:47:24;2.85;;;0.88;;
58553;SDS011;48119;53.218;6.576;2023-04-03T14:49:52;3.15;;;1.17;;
58553;SDS011;48119;53.218;6.576;2023-04-03T14:52:20;4.43;;;1.05;;
58553;SDS011;48119;53.218;6.576;2023-04-03T14:54:52;4.18;;;0.90;;
58553;SDS011;48119;53.218;6.576;2023-04-03T14:57:19;4.57;;;1.15;;
58553;SDS011;48119;53.218;6.576;2023-04-03T14:59:49;4.60;;;1.60;;
58553;SDS011;48119;53.218;6.576;2023-04-03T15:04:56;3.42;;;1.08;;
58553;SDS011;48119;53.218;6.576;2023-04-03T15:07:23;1.88;;;1.00;;
58553;SDS011;48119;53.218;6.576;2023-04-03T15:09:51;2.17;;;1.13;;
58553;SDS011;48119;53.218;6.576;2023-04-03T15:12:17;4.10;;;0.98;;
58553;SDS011;48119;53.218;6.576;2023-04-03T15:14:43;5.50;;;1.27;;
58553;SDS011;48119;53.218;6.576;2023-04-03T15:17:16;4.18;;;1.20;;
58553;SDS011;48119;53.218;6.576;2023-04-03T15:19:45;3.67;;;1.80;;
58553;SDS011;48119;53.218;6.576;2023-04-03T15:22:14;4.40;;;1.20;;
58553;SDS011;48119;53.218;6.576;2023-04-03T15:24:42;4.35;;;1.58;;
58553;SDS011;48119;53.218;6.576;2023-04-03T15:27:09;3.42;;;1.30;;
58553;SDS011;48119;53.218;6.576;2023-04-03T15:29:36;3.03;;;1.10;;
58553;SDS011;48119;53.218;6.576;2023-04-03T15:32:03;2.72;;;0.80;;
58553;SDS011;48119;53.218;6.576;2023-04-03T15:34:30;2.88;;;1.30;;
58553;SDS011;48119;53.218;6.576;2023-04-03T15:36:56;3.75;;;0.60;;
58553;SDS011;48119;53.218;6.576;2023-04-03T15:39:22;3.42;;;0.60;;
58553;SDS011;48119;53.218;6.576;2023-04-03T15:41:49;2.40;;;0.70;;
58553;SDS011;48119;53.218;6.576;2023-04-03T15:44:16;3.22;;;1.17;;
58553;SDS011;48119;53.218;6.576;2023-04-03T15:46:43;3.35;;;1.00;;
58553;SDS011;48119;53.218;6.576;2023-04-03T15:49:10;2.85;;;1.00;;
58553;SDS011;48119;53.218;6.576;2023-04-03T15:51:37;2.33;;;0.80;;
58553;SDS011;48119;53.218;6.576;2023-04-03T15:54:03;2.25;;;1.05;;
58553;SDS011;48119;53.218;6.576;2023-04-03T15:56:28;2.45;;;0.68;;
58553;SDS011;48119;53.218;6.576;2023-04-03T15:58:54;1.77;;;1.08;;
58553;SDS011;48119;53.218;6.576;2023-04-03T16:01:20;3.53;;;1.35;;
58553;SDS011;48119;53.218;6.576;2023-04-03T16:03:46;3.00;;;1.13;;
58553;SDS011;48119;53.218;6.576;2023-04-03T16:06:13;5.03;;;0.98;;
58553;SDS011;48119;53.218;6.576;2023-04-03T16:08:40;2.47;;;1.15;;
58553;SDS011;48119;53.218;6.576;2023-04-03T16:11:07;2.22;;;0.77;;
58553;SDS011;48119;53.218;6.576;2023-04-03T16:13:33;3.15;;;0.98;;
58553;SDS011;48119;53.218;6.576;2023-04-03T16:15:59;1.15;;;0.80;;
58553;SDS011;48119;53.218;6.576;2023-04-03T16:18:26;1.83;;;0.82;;
58553;SDS011;48119;53.218;6.576;2023-04-03T16:20:53;1.88;;;0.80;;
58553;SDS011;48119;53.218;6.576;2023-04-03T16:23:20;1.13;;;0.60;;
58553;SDS011;48119;53.218;6.576;2023-04-03T16:25:46;5.20;;;1.33;;
58553;SDS011;48119;53.218;6.576;2023-04-03T16:28:13;4.70;;;1.02;;
58553;SDS011;48119;53.218;6.576;2023-04-03T16:30:43;1.35;;;0.70;;
58553;SDS011;48119;53.218;6.576;2023-04-03T16:33:11;3.50;;;0.80;;
58553;SDS011;48119;53.218;6.576;2023-04-03T16:35:37;3.08;;;1.20;;
58553;SDS011;48119;53.218;6.576;2023-04-03T16:38:04;2.13;;;0.90;;
58553;SDS011;48119;53.218;6.576;2023-04-03T16:40:30;2.83;;;1.10;;
58553;SDS011;48119;53.218;6.576;2023-04-03T16:42:56;4.00;;;1.08;;
58553;SDS011;48119;53.218;6.576;2023-04-03T16:45:22;3.28;;;0.90;;
58553;SDS011;48119;53.218;6.576;2023-04-03T16:47:47;2.45;;;0.80;;
58553;SDS011;48119;53.218;6.576;2023-04-03T16:50:13;2.42;;;1.23;;
58553;SDS011;48119;53.218;6.576;2023-04-03T16:52:40;2.80;;;1.10;;
58553;SDS011;48119;53.218;6.576;2023-04-03T16:55:06;4.57;;;1.58;;
58553;SDS011;48119;53.218;6.576;2023-04-03T16:57:32;4.90;;;1.42;;